Time;durP1;ratioP1;P1;durP2;ratioP2;P2;SDS_P1;SDS_P2;PMS_P1;PMS_P2;Temp;Humidity;BMP_temperature;BMP_pressure;BME280_temperature;BME280_humidity;BME280_pressure;Samples;Min_cycle;Max_cycle;Signal;HPM_P1;HPM_P2
2022/07/21 00:00:30;;;;;;;2.33;1.77;;;;;;;21.89;51.76;99771.50;5047544;28;20021;-80
2022/07/21 00:02:56;;;;;;;2.92;1.65;;;;;;;21.97;51.52;99782.66;5047733;28;20052;-79
2022/07/21 00:05:23;;;;;;;4.20;2.42;;;;;;;21.73;51.69;99774.25;5046865;28;20048;-81
2022/07/21 00:07:49;;;;;;;5.03;2.05;;;;;;;21.63;51.25;99769.44;5054085;28;20067;-82
2022/07/21 00:10:15;;;;;;;3.47;2.15;;;;;;;21.43;51.16;99778.63;5067182;28;20032;-81
2022/07/21 00:12:41;;;;;;;2.10;1.83;;;;;;;21.34;52.09;99773.81;5066445;28;20051;-79
2022/07/21 00:15:08;;;;;;;1.63;1.20;;;;;;;21.23;53.49;99778.94;5047882;28;20037;-79
2022/07/21 00:17:34;;;;;;;3.20;1.70;;;;;;;21.34;53.96;99771.13;5051393;28;20043;-80
2022/07/21 00:19:59;;;;;;;2.05;1.65;;;;;;;21.31;54.07;99743.63;5066416;28;20040;-80
2022/07/21 00:22:25;;;;;;;5.43;1.90;;;;;;;21.51;54.40;99774.69;5066750;28;20039;-80
2022/07/21 00:24:50;;;;;;;2.35;1.40;;;;;;;21.37;54.65;99757.53;5066650;28;20469;-80
2022/07/21 00:27:16;;;;;;;3.45;1.38;;;;;;;21.24;54.27;99741.31;5054091;28;20175;-80
2022/07/21 00:29:41;;;;;;;5.70;2.53;;;;;;;21.53;53.64;99783.50;5048931;28;20438;-79
2022/07/21 00:32:07;;;;;;;2.85;1.70;;;;;;;21.60;53.13;99777.69;5047374;28;20054;-80
2022/07/21 00:34:33;;;;;;;2.10;1.30;;;;;;;21.32;53.49;99745.34;5046611;28;20049;-80
2022/07/21 00:36:59;;;;;;;3.13;1.95;;;;;;;21.32;53.77;99756.06;5046446;28;20033;-80
2022/07/21 00:39:24;;;;;;;3.15;1.92;;;;;;;21.18;54.11;99748.81;5046560;28;20609;-82
2022/07/21 00:41:50;;;;;;;6.50;1.77;;;;;;;21.25;54.08;99766.31;5046300;28;20047;-83
2022/07/21 00:44:21;;;;;;;2.05;1.52;;;;;;;21.15;54.23;99736.47;5047556;28;20059;-80
2022/07/21 00:46:46;;;;;;;2.33;1.25;;;;;;;20.96;53.13;99731.31;5046415;28;20036;-81
2022/07/21 00:49:11;;;;;;;3.22;1.85;;;;;;;20.98;53.89;99776.81;5047389;28;20040;-79
2022/07/21 00:51:37;;;;;;;1.98;1.30;;;;;;;20.90;53.79;99753.13;5046630;28;20532;-79
2022/07/21 00:54:02;;;;;;;2.45;1.60;;;;;;;20.96;54.54;99765.28;5060713;28;20036;-80
2022/07/21 00:56:28;;;;;;;2.55;1.52;;;;;;;20.86;54.76;99739.00;5065790;28;20044;-80
2022/07/21 00:58:53;;;;;;;2.65;1.60;;;;;;;21.11;55.04;99770.63;5064606;28;20520;-81
2022/07/21 01:01:19;;;;;;;3.53;1.63;;;;;;;21.21;54.47;99773.66;5065106;28;20040;-82
2022/07/21 01:03:44;;;;;;;4.63;1.38;;;;;;;21.07;54.93;99742.28;5058187;28;20063;-80
2022/07/21 01:06:10;;;;;;;2.75;1.90;;;;;;;21.11;54.78;99749.19;5066440;28;20753;-81
2022/07/21 01:08:35;;;;;;;3.22;1.70;;;;;;;21.23;54.67;99758.34;5066391;28;20052;-81
2022/07/21 01:11:01;;;;;;;2.63;1.38;;;;;;;21.15;54.96;99752.56;5055272;28;20040;-81
2022/07/21 01:13:27;;;;;;;2.80;1.90;;;;;;;21.10;54.91;99743.91;5046272;28;20033;-79
2022/07/21 01:15:52;;;;;;;2.50;1.80;;;;;;;20.91;54.81;99715.50;5028194;28;20099;-80
2022/07/21 01:18:18;;;;;;;2.15;1.80;;;;;;;21.17;54.62;99744.44;5064363;28;20036;-80
2022/07/21 01:20:52;;;;;;;2.45;1.40;;;;;;;21.18;54.85;99757.75;5041326;28;20506;-80
2022/07/21 01:23:19;;;;;;;1.60;1.50;;;;;;;20.85;54.48;99731.06;5045798;28;20037;-79
2022/07/21 01:25:48;;;;;;;2.00;1.40;;;;;;;20.97;54.26;99753.63;5045908;28;20033;-79
2022/07/21 01:28:14;;;;;;;6.03;1.70;;;;;;;21.02;54.26;99751.53;5061534;28;20642;-80
2022/07/21 01:30:40;;;;;;;2.53;1.73;;;;;;;21.02;54.46;99764.94;5046454;28;20120;-80
2022/07/21 01:33:05;;;;;;;1.95;1.45;;;;;;;21.02;54.64;99757.78;5046092;28;20430;-82
2022/07/21 01:35:31;;;;;;;2.55;1.95;;;;;;;20.66;54.85;99709.81;5046181;28;20255;-81
2022/07/21 01:37:58;;;;;;;4.35;1.50;;;;;;;20.91;55.22;99758.41;5046215;28;20033;-81
2022/07/21 01:43:13;;;;;;;3.13;2.20;;;;;;;20.88;55.70;99758.56;5013276;28;20041;-81
2022/07/21 01:45:40;;;;;;;1.55;1.33;;;;;;;20.99;55.78;99765.13;5046320;28;20521;-81
2022/07/21 01:48:05;;;;;;;2.17;1.45;;;;;;;20.78;56.42;99745.78;5045869;28;20024;-79
2022/07/21 01:50:31;;;;;;;3.90;1.90;;;;;;;20.75;56.06;99736.09;5055866;28;20525;-83
2022/07/21 01:52:58;;;;;;;4.47;1.90;;;;;;;20.80;55.59;99735.81;5051648;28;20052;-81
2022/07/21 01:55:25;;;;;;;1.67;1.25;;;;;;;20.88;55.82;99729.09;5067292;28;20051;-81
2022/07/21 01:57:51;;;;;;;1.95;1.55;;;;;;;20.44;56.03;99718.16;5055748;28;20058;-80
2022/07/21 02:00:17;;;;;;;3.28;2.25;;;;;;;20.38;55.39;99751.50;5069401;28;20036;-82
2022/07/21 02:02:43;;;;;;;1.98;1.48;;;;;;;20.06;56.45;99747.88;5069160;28;20058;-80
2022/07/21 02:05:08;;;;;;;2.03;1.23;;;;;;;19.94;57.10;99744.91;5050355;28;20112;-79
2022/07/21 02:07:34;;;;;;;2.85;1.73;;;;;;;20.02;57.16;99729.31;5051630;28;20486;-78
2022/07/21 02:10:00;;;;;;;5.22;2.00;;;;;;;20.21;57.14;99742.56;5069099;28;20803;-79
2022/07/21 02:12:25;;;;;;;3.63;2.15;;;;;;;20.27;57.15;99740.50;5069303;28;20121;-80
2022/07/21 02:14:51;;;;;;;2.95;2.00;;;;;;;20.23;58.21;99744.28;5068971;28;20032;-80
2022/07/21 02:17:16;;;;;;;3.58;2.47;;;;;;;20.01;58.92;99729.38;5056486;28;20033;-80
2022/07/21 02:19:42;;;;;;;2.30;1.67;;;;;;;19.97;59.46;99750.13;5048816;28;20414;-80
2022/07/21 02:22:07;;;;;;;1.52;1.17;;;;;;;20.00;60.11;99757.09;5047532;28;20055;-79
2022/07/21 02:24:34;;;;;;;2.17;1.67;;;;;;;20.00;59.65;99747.28;5055534;28;20048;-81
2022/07/21 02:27:00;;;;;;;2.20;1.58;;;;;;;20.07;59.41;99745.13;5048645;28;20060;-82
2022/07/21 02:29:26;;;;;;;1.50;1.40;;;;;;;20.00;59.65;99724.97;5065960;28;20102;-80
2022/07/21 02:31:51;;;;;;;2.95;1.92;;;;;;;20.00;59.73;99733.88;5033232;28;20540;-79
2022/07/21 02:34:17;;;;;;;2.80;1.75;;;;;;;20.29;59.04;99754.69;5053576;28;20079;-80
2022/07/21 02:36:42;;;;;;;3.05;2.22;;;;;;;20.11;58.54;99737.78;5048822;28;20040;-80
2022/07/21 02:39:08;;;;;;;2.30;2.08;;;;;;;20.07;58.63;99742.44;5048675;28;20044;-82
2022/07/21 02:41:34;;;;;;;2.95;2.00;;;;;;;19.92;57.77;99740.59;5048709;28;20674;-80
2022/07/21 02:43:59;;;;;;;2.28;1.60;;;;;;;19.56;58.91;99714.78;5059115;28;20028;-80
2022/07/21 02:46:24;;;;;;;3.78;2.05;;;;;;;19.55;58.19;99708.53;5068399;28;20040;-80
2022/07/21 02:48:50;;;;;;;2.42;1.55;;;;;;;19.70;56.53;99714.91;5061634;28;20037;-79
2022/07/21 02:51:15;;;;;;;4.90;2.00;;;;;;;19.65;55.90;99707.13;5048259;28;20053;-80
2022/07/21 02:53:41;;;;;;;3.45;2.03;;;;;;;19.61;57.58;99737.66;5062057;28;20044;-80
2022/07/21 02:56:07;;;;;;;3.83;1.67;;;;;;;19.68;57.86;99731.06;5052905;28;20060;-80
2022/07/21 02:58:32;;;;;;;2.00;1.65;;;;;;;19.73;57.80;99748.69;5082979;28;20033;-82
2022/07/21 03:01:00;;;;;;;2.60;2.15;;;;;;;19.83;57.79;99740.13;5050052;28;20033;-80
2022/07/21 03:03:28;;;;;;;1.88;1.50;;;;;;;19.79;58.22;99725.16;5067215;28;20028;-80
2022/07/21 03:05:54;;;;;;;3.53;2.20;;;;;;;19.57;58.68;99705.78;5061651;28;20044;-80
2022/07/21 03:08:21;;;;;;;5.20;2.65;;;;;;;19.61;58.81;99712.72;5065384;28;20032;-81
2022/07/21 03:10:47;;;;;;;2.67;2.30;;;;;;;19.80;58.74;99739.41;5068322;28;20039;-80
2022/07/21 03:13:13;;;;;;;3.40;2.25;;;;;;;19.87;59.04;99721.25;5060879;28;20033;-80
2022/07/21 03:15:39;;;;;;;2.28;1.70;;;;;;;20.08;58.60;99733.47;5047779;28;20036;-81
2022/07/21 03:18:05;;;;;;;2.10;1.73;;;;;;;19.93;58.52;99739.66;5049024;28;20503;-81
2022/07/21 03:20:33;;;;;;;1.92;1.65;;;;;;;19.84;58.82;99733.81;5055558;28;20031;-80
2022/07/21 03:22:59;;;;;;;4.68;1.75;;;;;;;19.81;59.00;99739.31;5077091;28;20020;-80
2022/07/21 03:25:25;;;;;;;3.17;1.85;;;;;;;19.73;59.03;99705.88;5049483;28;20097;-81
2022/07/21 03:27:51;;;;;;;2.72;2.08;;;;;;;20.08;58.96;99735.25;5057294;28;20040;-81
2022/07/21 03:30:17;;;;;;;1.98;1.63;;;;;;;20.06;59.02;99734.50;5048281;28;20106;-81
2022/07/21 03:32:44;;;;;;;3.20;1.92;;;;;;;20.06;58.43;99737.16;5067275;28;20573;-84
2022/07/21 03:35:11;;;;;;;3.80;1.67;;;;;;;20.03;58.87;99717.66;5067371;28;20028;-87
2022/07/21 03:37:58;;;;;;;3.67;2.30;;;;;;;20.11;58.23;99725.28;5055527;28;20144;-85
2022/07/21 03:40:25;;;;;;;1.75;1.55;;;;;;;20.12;58.49;99737.69;5064288;28;20028;-84
2022/07/21 03:42:56;;;;;;;5.93;2.40;;;;;;;20.09;58.20;99724.47;5030366;28;20043;-86
2022/07/21 03:45:22;;;;;;;2.67;1.65;;;;;;;20.20;58.30;99742.63;5047572;28;20494;-86
2022/07/21 03:47:48;;;;;;;3.78;1.73;;;;;;;20.06;58.30;99723.78;5048144;28;20575;-87
2022/07/21 03:50:16;;;;;;;2.88;1.75;;;;;;;20.26;58.53;99746.81;5047275;28;20116;-85
2022/07/21 03:52:41;;;;;;;2.53;1.83;;;;;;;20.34;58.88;99741.88;5054596;28;20139;-87
2022/07/21 03:55:07;;;;;;;1.95;1.50;;;;;;;20.15;58.58;99705.41;5062706;28;20542;-85
2022/07/21 03:58:01;;;;;;;3.88;1.80;;;;;;;20.55;58.10;99745.22;5066646;28;20029;-85
2022/07/21 04:00:38;;;;;;;3.30;2.47;;;;;;;20.76;57.55;99743.19;5049654;28;20128;-86
2022/07/21 04:03:05;;;;;;;3.13;1.92;;;;;;;20.95;57.06;99748.34;5065112;28;20106;-85
2022/07/21 04:05:32;;;;;;;4.22;2.63;;;;;;;20.92;56.05;99713.69;5067037;28;20044;-85
2022/07/21 04:07:58;;;;;;;2.55;1.95;;;;;;;21.16;54.98;99753.44;5066357;28;20055;-84
2022/07/21 04:10:27;;;;;;;2.72;2.05;;;;;;;21.11;54.60;99746.50;5032220;28;20557;-85
2022/07/21 04:12:54;;;;;;;2.55;1.90;;;;;;;21.25;53.59;99750.22;5028036;28;20186;-87
2022/07/21 04:15:20;;;;;;;2.67;1.63;;;;;;;21.42;52.70;99752.75;5047185;28;20041;-87
2022/07/21 04:17:46;;;;;;;2.95;1.92;;;;;;;21.47;53.41;99749.78;5047556;28;20037;-85
2022/07/21 04:20:13;;;;;;;3.97;2.83;;;;;;;21.23;53.34;99727.97;5056490;28;20646;-83
2022/07/21 04:22:40;;;;;;;3.03;2.17;;;;;;;21.38;53.69;99723.50;5057324;28;20047;-84
2022/07/21 04:25:06;;;;;;;5.88;1.65;;;;;;;21.78;52.73;99740.81;5046269;28;20033;-86
2022/07/21 04:27:32;;;;;;;2.85;2.00;;;;;;;21.87;52.62;99746.56;5046543;28;20502;-87
2022/07/21 04:29:58;;;;;;;3.00;1.80;;;;;;;22.02;52.11;99728.66;5050231;28;20035;-91
2022/07/21 04:32:24;;;;;;;3.70;2.13;;;;;;;22.42;51.66;99740.47;5032512;28;20033;-84
2022/07/21 04:34:49;;;;;;;4.63;2.83;;;;;;;22.57;51.81;99741.34;5059460;28;20029;-86
2022/07/21 04:37:15;;;;;;;3.00;1.92;;;;;;;22.57;50.21;99719.84;5043201;28;20059;-88
2022/07/21 04:39:40;;;;;;;9.63;2.88;;;;;;;22.60;50.69;99730.38;5058244;28;20032;-86
2022/07/21 04:42:06;;;;;;;4.00;2.83;;;;;;;22.66;50.55;99740.75;5062315;28;20032;-86
2022/07/21 04:44:32;;;;;;;3.10;2.00;;;;;;;22.77;48.79;99729.28;5040225;28;20506;-86
2022/07/21 04:46:57;;;;;;;3.35;2.50;;;;;;;23.24;48.84;99746.81;5046566;28;20025;-86
2022/07/21 04:49:23;;;;;;;2.42;1.80;;;;;;;23.17;48.69;99741.97;5049285;28;20486;-87
2022/07/21 04:51:48;;;;;;;3.47;2.40;;;;;;;22.99;49.26;99744.88;5062681;28;20057;-85
2022/07/21 04:54:15;;;;;;;3.45;1.90;;;;;;;22.99;49.34;99744.88;5066686;28;20110;-87
2022/07/21 04:56:41;;;;;;;4.85;3.15;;;;;;;22.97;49.88;99725.31;5066059;28;20033;-85
2022/07/21 04:59:07;;;;;;;3.75;2.10;;;;;;;22.64;48.60;99744.50;5064365;28;20043;-86
2022/07/21 05:01:32;;;;;;;5.22;3.05;;;;;;;22.52;50.51;99728.19;5047188;28;20045;-89
2022/07/21 05:03:58;;;;;;;2.13;1.35;;;;;;;22.98;49.93;99729.69;5061044;28;20789;-86
2022/07/21 05:06:23;;;;;;;3.30;2.20;;;;;;;23.50;48.34;99737.97;5066346;28;20028;-86
2022/07/21 05:08:49;;;;;;;3.78;2.90;;;;;;;23.76;46.35;99726.28;5063443;28;20025;-87
2022/07/21 05:11:17;;;;;;;3.10;2.05;;;;;;;23.85;46.97;99727.50;5061228;28;20058;-87
2022/07/21 05:13:43;;;;;;;3.88;1.95;;;;;;;23.87;46.41;99748.94;5045839;28;20403;-86
2022/07/21 05:16:08;;;;;;;2.15;1.58;;;;;;;24.49;44.43;99748.13;5053246;28;20036;-86
2022/07/21 05:18:34;;;;;;;3.88;2.00;;;;;;;24.27;43.91;99720.03;5043160;28;20106;-86
2022/07/21 05:20:59;;;;;;;5.47;2.67;;;;;;;24.37;44.90;99709.44;5053109;28;20040;-88
2022/07/21 05:23:25;;;;;;;6.65;2.78;;;;;;;24.57;42.75;99707.16;5050460;28;20044;-86
2022/07/21 05:25:50;;;;;;;3.22;1.77;;;;;;;24.69;44.07;99716.22;5068133;28;20527;-86
2022/07/21 05:28:16;;;;;;;2.50;1.70;;;;;;;25.28;42.01;99718.94;5070300;28;20036;-86
2022/07/21 05:30:41;;;;;;;3.13;2.20;;;;;;;25.33;43.63;99726.72;5060109;28;20043;-85
2022/07/21 05:33:07;;;;;;;3.25;2.17;;;;;;;24.74;44.01;99724.81;5055740;28;20111;-85
2022/07/21 05:35:33;;;;;;;9.00;2.28;;;;;;;25.31;43.73;99737.66;5053300;28;20064;-85
2022/07/21 05:37:58;;;;;;;3.05;1.98;;;;;;;25.52;43.40;99705.44;5068105;28;20039;-83
2022/07/21 05:40:24;;;;;;;2.58;1.80;;;;;;;26.26;42.51;99737.53;5069063;28;20028;-82
2022/07/21 05:42:50;;;;;;;2.53;1.85;;;;;;;26.61;41.09;99722.13;5068856;28;20025;-86
2022/07/21 05:45:15;;;;;;;4.45;2.08;;;;;;;26.68;41.18;99726.09;5052538;28;20033;-85
2022/07/21 05:47:41;;;;;;;9.13;3.55;;;;;;;26.72;40.39;99702.34;5062125;28;20127;-83
2022/07/21 05:50:08;;;;;;;4.85;2.25;;;;;;;26.56;40.64;99725.22;5068709;28;20032;-83
2022/07/21 05:52:34;;;;;;;2.97;2.20;;;;;;;26.48;40.21;99733.09;5064467;28;20048;-83
2022/07/21 05:54:59;;;;;;;6.93;2.58;;;;;;;26.37;41.73;99714.16;5038404;28;20037;-85
2022/07/21 05:57:25;;;;;;;3.53;2.17;;;;;;;26.59;42.33;99718.69;5066497;28;20025;-85
2022/07/21 05:59:50;;;;;;;3.15;2.25;;;;;;;27.27;40.65;99683.34;5065319;28;20025;-85
2022/07/21 06:02:16;;;;;;;4.13;2.30;;;;;;;27.99;38.83;99722.34;5051381;28;20144;-84
2022/07/21 06:04:41;;;;;;;2.40;1.58;;;;;;;28.12;38.69;99717.59;5061126;28;20064;-84
2022/07/21 06:07:07;;;;;;;4.10;2.80;;;;;;;28.29;38.19;99705.25;5055174;28;20098;-87
2022/07/21 06:09:32;;;;;;;2.08;1.63;;;;;;;28.26;39.06;99700.09;5058454;28;20037;-86
2022/07/21 06:11:58;;;;;;;2.97;1.88;;;;;;;28.46;38.69;99703.72;5048111;28;20036;-87
2022/07/21 06:14:24;;;;;;;6.68;1.80;;;;;;;28.21;38.06;99702.38;5060723;28;20041;-83
2022/07/21 06:16:49;;;;;;;2.85;1.85;;;;;;;28.46;38.22;99713.75;5068252;28;20086;-82
2022/07/21 06:19:15;;;;;;;3.88;2.60;;;;;;;29.07;36.61;99713.63;5030492;28;20044;-84
2022/07/21 06:21:40;;;;;;;5.38;3.30;;;;;;;29.63;36.84;99689.44;5047889;28;20029;-84
2022/07/21 06:24:07;;;;;;;3.50;1.80;;;;;;;29.10;35.79;99674.44;5056679;28;20498;-84
2022/07/21 06:26:33;;;;;;;3.72;1.98;;;;;;;29.36;35.83;99711.94;5046439;28;20048;-85
2022/07/21 06:28:58;;;;;;;1.70;1.42;;;;;;;29.90;35.64;99707.72;5062906;28;20056;-84
2022/07/21 06:31:24;;;;;;;3.58;2.42;;;;;;;29.94;37.59;99675.66;5048344;28;20167;-84
2022/07/21 06:33:50;;;;;;;2.83;2.10;;;;;;;29.89;35.13;99692.44;5087320;28;20032;-85
2022/07/21 06:36:15;;;;;;;4.03;1.30;;;;;;;29.82;36.10;99694.84;5074272;28;20098;-83
2022/07/21 06:38:41;;;;;;;3.58;2.45;;;;;;;29.53;37.09;99694.03;5031007;28;20128;-83
2022/07/21 06:41:07;;;;;;;3.10;1.95;;;;;;;29.59;35.79;99658.13;5048330;28;20037;-84
2022/07/21 06:43:33;;;;;;;11.88;1.73;;;;;;;30.15;36.79;99680.88;5047964;28;20090;-85
2022/07/21 06:45:58;;;;;;;3.03;1.90;;;;;;;29.88;34.76;99687.97;5047505;28;20798;-84
2022/07/21 06:48:25;;;;;;;7.28;1.85;;;;;;;30.13;34.69;99689.16;5047931;28;20037;-84
2022/07/21 06:50:53;;;;;;;2.40;1.52;;;;;;;29.67;36.90;99650.09;5049111;28;20044;-84
2022/07/21 06:53:19;;;;;;;4.60;1.52;;;;;;;30.53;34.21;99651.78;5048625;28;20037;-84
2022/07/21 06:55:45;;;;;;;2.25;1.40;;;;;;;30.81;34.17;99652.59;5048455;28;20086;-84
2022/07/21 06:58:20;;;;;;;2.03;1.30;;;;;;;31.49;31.88;99642.97;5047897;28;20477;-84
2022/07/21 07:00:47;;;;;;;1.80;1.20;;;;;;;32.02;31.89;99651.16;5047847;28;20036;-86
2022/07/21 07:03:14;;;;;;;4.72;2.42;;;;;;;32.23;32.31;99646.19;5047795;28;20094;-86
2022/07/21 07:05:40;;;;;;;3.58;1.80;;;;;;;32.48;31.04;99638.06;5047239;28;20454;-85
2022/07/21 07:08:07;;;;;;;1.98;1.55;;;;;;;32.24;32.00;99634.25;5047580;28;20075;-85
2022/07/21 07:10:32;;;;;;;2.00;1.20;;;;;;;32.23;31.48;99613.44;5047468;28;20036;-86
2022/07/21 07:12:58;;;;;;;2.85;1.63;;;;;;;31.50;31.56;99594.81;5047508;28;20047;-85
2022/07/21 07:15:24;;;;;;;2.70;1.75;;;;;;;31.96;29.15;99625.38;5048362;28;20021;-86
2022/07/21 07:17:51;;;;;;;2.55;1.80;;;;;;;31.93;30.67;99632.03;5048150;28;20064;-86
2022/07/21 07:20:16;;;;;;;5.63;2.85;;;;;;;32.53;30.66;99622.03;5048449;28;20025;-86
2022/07/21 07:22:42;;;;;;;5.20;1.25;;;;;;;32.24;28.84;99617.00;5047799;28;20044;-85
2022/07/21 07:25:08;;;;;;;2.90;1.45;;;;;;;32.24;27.84;99600.63;5048091;28;20033;-85
2022/07/21 07:27:34;;;;;;;1.58;1.20;;;;;;;32.40;27.05;99600.69;5048271;28;20124;-86
2022/07/21 07:30:00;;;;;;;6.85;1.95;;;;;;;32.65;28.26;99598.91;5048345;28;20482;-86
2022/07/21 07:32:26;;;;;;;2.97;1.95;;;;;;;32.94;27.80;99608.50;5048045;28;20028;-85
2022/07/21 07:34:51;;;;;;;3.10;1.52;;;;;;;32.76;28.08;99610.53;5048362;28;20483;-82
2022/07/21 07:37:17;;;;;;;1.77;0.93;;;;;;;32.51;25.60;99591.34;5048123;28;20037;-85
2022/07/21 07:39:43;;;;;;;2.47;1.42;;;;;;;32.40;27.84;99591.66;5047928;28;20033;-85
2022/07/21 07:42:08;;;;;;;1.60;1.30;;;;;;;32.52;26.31;99594.91;5029427;28;20040;-88
2022/07/21 07:44:34;;;;;;;6.22;1.63;;;;;;;32.78;27.74;99628.47;5047393;28;20033;-87
2022/07/21 07:47:03;;;;;;;2.42;1.35;;;;;;;32.61;26.24;99627.53;5046703;28;20037;-82
2022/07/21 07:49:29;;;;;;;2.80;1.10;;;;;;;32.56;27.99;99594.41;5047835;28;20035;-84
2022/07/21 07:51:55;;;;;;;1.55;1.15;;;;;;;33.30;27.77;99613.63;5047434;28;20049;-85
2022/07/21 07:54:21;;;;;;;2.67;1.58;;;;;;;33.31;25.50;99618.09;5047376;28;20102;-86
2022/07/21 07:56:46;;;;;;;1.92;0.73;;;;;;;32.98;24.74;99623.53;5047665;28;20029;-86
2022/07/21 07:59:12;;;;;;;2.08;0.90;;;;;;;32.97;25.91;99623.69;5047375;28;20086;-85
2022/07/21 08:01:37;;;;;;;1.67;1.20;;;;;;;33.41;27.63;99617.88;5047367;28;20029;-87
2022/07/21 08:04:03;;;;;;;4.40;1.48;;;;;;;33.36;25.89;99585.59;5029411;28;20036;-86
2022/07/21 08:06:29;;;;;;;2.65;1.00;;;;;;;33.46;26.05;99618.25;5047547;28;20040;-85
2022/07/21 08:08:54;;;;;;;1.75;1.30;;;;;;;33.83;25.58;99610.47;5047260;28;20487;-85
2022/07/21 08:11:20;;;;;;;2.25;1.10;;;;;;;33.85;27.32;99606.56;5047233;28;20040;-84
2022/07/21 08:13:46;;;;;;;1.35;1.23;;;;;;;33.81;26.47;99582.47;5046708;28;20036;-86
2022/07/21 08:16:15;;;;;;;2.08;1.30;;;;;;;34.08;25.59;99590.22;5047222;28;20021;-86
2022/07/21 08:18:41;;;;;;;2.55;0.90;;;;;;;33.73;25.15;99570.50;5047319;28;20116;-85
2022/07/21 08:21:07;;;;;;;3.03;1.40;;;;;;;34.06;25.99;99605.97;5046944;28;20039;-86
2022/07/21 08:23:33;;;;;;;1.98;1.30;;;;;;;33.93;26.20;99592.00;5047816;28;20037;-85
2022/07/21 08:25:58;;;;;;;2.08;1.27;;;;;;;34.35;25.52;99584.47;5047448;28;20530;-85
2022/07/21 08:28:24;;;;;;;3.08;1.67;;;;;;;33.79;25.64;99579.91;5046888;28;20143;-85
2022/07/21 08:30:49;;;;;;;1.10;0.95;;;;;;;33.86;25.25;99577.31;5047477;28;20036;-85
2022/07/21 08:33:15;;;;;;;2.53;1.35;;;;;;;34.56;26.65;99598.38;5047404;28;20095;-86
2022/07/21 08:35:41;;;;;;;1.98;1.40;;;;;;;34.55;25.43;99579.38;5046813;28;20047;-87
2022/07/21 08:38:09;;;;;;;2.92;1.67;;;;;;;34.43;25.01;99573.47;5047036;28;20064;-86
2022/07/21 08:40:40;;;;;;;1.85;1.60;;;;;;;34.37;24.47;99560.50;5046844;28;20418;-86
2022/07/21 08:43:08;;;;;;;1.90;1.52;;;;;;;34.28;27.14;99578.00;5046502;28;20056;-85
2022/07/21 08:45:34;;;;;;;1.92;1.52;;;;;;;34.55;25.22;99582.97;5046945;28;20037;-86
2022/07/21 08:48:00;;;;;;;3.00;1.75;;;;;;;34.73;24.68;99585.41;5046679;28;20039;-86
2022/07/21 08:50:29;;;;;;;2.97;1.92;;;;;;;34.86;25.24;99542.88;5046797;28;20025;-88
2022/07/21 08:52:55;;;;;;;1.85;1.30;;;;;;;35.10;26.30;99561.84;5048255;28;20084;-86
2022/07/21 08:55:20;;;;;;;2.30;1.45;;;;;;;35.02;24.29;99561.94;5049990;28;20037;-85
2022/07/21 08:57:46;;;;;;;3.22;1.48;;;;;;;35.02;24.82;99542.75;5048849;28;20036;-86
2022/07/21 09:00:12;;;;;;;6.38;1.95;;;;;;;35.19;24.57;99553.53;5050824;28;20037;-85
2022/07/21 09:02:38;;;;;;;2.03;1.70;;;;;;;35.17;24.20;99572.91;5050743;28;20156;-84
2022/07/21 09:05:05;;;;;;;1.70;1.10;;;;;;;34.95;23.41;99560.97;5050745;28;20499;-85
2022/07/21 09:07:54;;;;;;;8.77;1.75;;;;;;;35.60;23.88;99569.59;5050378;28;20068;-84
2022/07/21 09:10:26;;;;;;;2.42;1.50;;;;;;;35.46;23.96;99555.69;5032869;28;20502;-83
2022/07/21 09:12:57;;;;;;;1.50;1.25;;;;;;;35.85;25.48;99573.78;5050647;28;20249;-85
2022/07/21 09:15:25;;;;;;;2.20;1.20;;;;;;;35.40;23.90;99550.94;5050994;28;20040;-85
2022/07/21 09:18:04;;;;;;;2.75;1.30;;;;;;;35.53;23.18;99539.34;5050425;28;20033;-85
2022/07/21 09:20:29;;;;;;;1.35;0.95;;;;;;;35.32;24.71;99535.44;5050292;28;20392;-87
2022/07/21 09:23:02;;;;;;;7.50;1.48;;;;;;;35.76;25.50;99561.22;5050486;28;20036;-85
2022/07/21 09:25:42;;;;;;;2.67;1.60;;;;;;;35.95;22.41;99556.19;5050554;28;20029;-85
2022/07/21 09:28:22;;;;;;;1.88;1.05;;;;;;;35.73;24.06;99553.34;5032191;28;20067;-86
2022/07/21 09:30:57;;;;;;;2.25;1.38;;;;;;;36.18;25.43;99556.88;5050320;28;20063;-85
2022/07/21 09:33:26;;;;;;;2.13;1.40;;;;;;;36.34;21.45;99519.28;5050132;28;20069;-84
2022/07/21 09:36:02;;;;;;;2.03;1.63;;;;;;;36.19;25.16;99536.63;5052334;28;20043;-84
2022/07/21 09:38:29;;;;;;;1.70;1.25;;;;;;;35.85;23.90;99532.63;5070204;28;20033;-85
2022/07/21 09:40:58;;;;;;;1.83;1.33;;;;;;;36.00;23.69;99535.34;5070087;28;20039;-86
2022/07/21 09:43:42;;;;;;;1.67;1.13;;;;;;;36.21;21.60;99517.22;5069323;28;20029;-85
2022/07/21 09:46:14;;;;;;;2.03;1.23;;;;;;;36.26;22.32;99524.91;5070266;28;20028;-86
2022/07/21 09:48:41;;;;;;;3.03;1.60;;;;;;;36.07;22.76;99518.09;5069988;28;20087;-85
2022/07/21 09:51:20;;;;;;;1.65;1.05;;;;;;;36.30;21.92;99545.44;5069658;28;20040;-84
2022/07/21 09:54:04;;;;;;;1.50;1.05;;;;;;;36.24;25.61;99503.13;5069657;28;20024;-86
2022/07/21 09:56:32;;;;;;;1.27;1.08;;;;;;;36.34;22.83;99525.63;5069636;28;20033;-84
2022/07/21 09:58:59;;;;;;;1.70;1.25;;;;;;;36.25;21.98;99536.91;5069927;28;20036;-85
2022/07/21 10:01:26;;;;;;;2.75;1.20;;;;;;;36.72;24.27;99533.63;5069554;28;20043;-84
2022/07/21 10:03:53;;;;;;;1.83;1.20;;;;;;;36.54;24.30;99525.81;5069723;28;20784;-84
2022/07/21 10:06:25;;;;;;;1.38;1.05;;;;;;;36.59;25.16;99505.16;5069425;28;20039;-84
2022/07/21 10:08:52;;;;;;;1.60;1.02;;;;;;;36.02;25.75;99494.84;5051475;28;20044;-85
2022/07/21 10:11:18;;;;;;;3.72;1.67;;;;;;;35.97;26.54;99529.41;5069034;28;20093;-85
2022/07/21 10:13:44;;;;;;;2.13;1.27;;;;;;;36.65;26.09;99529.09;5069203;28;20440;-84
2022/07/21 10:16:11;;;;;;;2.03;1.30;;;;;;;36.60;22.01;99502.22;5069740;28;20074;-88
2022/07/21 10:18:52;;;;;;;0.93;0.80;;;;;;;37.41;21.10;99525.72;5069431;28;20029;-87
2022/07/21 10:21:23;;;;;;;2.65;1.60;;;;;;;37.44;22.63;99525.34;5069344;28;20595;-88
2022/07/21 10:23:53;;;;;;;2.50;1.60;;;;;;;37.49;20.46;99522.81;5069099;28;20035;-88
2022/07/21 10:26:19;;;;;;;4.30;1.48;;;;;;;37.34;20.70;99472.59;5069476;28;20036;-88
2022/07/21 10:28:45;;;;;;;1.80;1.52;;;;;;;37.73;20.14;99485.72;5069064;28;20037;-87
2022/07/21 10:31:21;;;;;;;1.65;1.27;;;;;;;37.80;21.37;99478.34;5069054;28;20520;-87
2022/07/21 10:33:47;;;;;;;2.25;1.10;;;;;;;37.68;20.83;99510.25;5068678;28;20032;-86
2022/07/21 10:36:28;;;;;;;1.90;1.20;;;;;;;37.94;21.94;99504.03;5068803;28;20032;-86
2022/07/21 10:39:06;;;;;;;2.33;1.42;;;;;;;36.98;24.69;99507.41;5068892;28;20032;-85
2022/07/21 10:41:40;;;;;;;2.95;1.55;;;;;;;37.29;23.11;99486.94;5068508;28;20044;-85
2022/07/21 10:44:30;;;;;;;2.00;1.20;;;;;;;37.35;22.27;99460.53;5068560;28;20036;-86
2022/07/21 10:47:23;;;;;;;1.90;1.10;;;;;;;37.49;20.91;99491.72;5053367;28;20051;-85
2022/07/21 10:49:49;;;;;;;2.42;1.17;;;;;;;37.73;20.34;99493.16;5068801;28;20036;-85
2022/07/21 10:52:39;;;;;;;2.47;1.40;;;;;;;38.23;19.05;99485.47;5068232;28;20052;-86
2022/07/21 10:55:23;;;;;;;3.58;2.03;;;;;;;37.93;20.99;99463.78;5069019;28;20835;-85
2022/07/21 10:58:09;;;;;;;3.03;1.80;;;;;;;38.32;19.30;99478.72;5050444;28;20036;-86
2022/07/21 11:00:36;;;;;;;2.83;1.48;;;;;;;38.01;20.30;99453.66;5068333;28;20040;-85
2022/07/21 11:03:15;;;;;;;1.75;1.35;;;;;;;38.07;20.62;99450.06;5068518;28;20028;-86
2022/07/21 11:06:06;;;;;;;2.67;1.83;;;;;;;37.58;19.99;99472.06;5068534;28;20024;-87
2022/07/21 11:08:42;;;;;;;1.83;1.20;;;;;;;37.79;20.59;99464.81;5068204;28;20032;-85
2022/07/21 11:11:15;;;;;;;1.90;1.35;;;;;;;38.15;19.84;99456.22;5068372;28;20414;-86
2022/07/21 11:14:06;;;;;;;3.35;1.70;;;;;;;38.39;22.20;99464.13;5068171;28;20044;-87
2022/07/21 11:16:40;;;;;;;1.65;1.10;;;;;;;38.53;23.79;99463.09;5068727;28;20031;-88
2022/07/21 11:19:26;;;;;;;1.13;0.90;;;;;;;38.35;23.58;99421.53;5067866;28;20036;-91
2022/07/21 11:21:52;;;;;;;2.47;1.63;;;;;;;37.93;21.93;99425.25;5066420;28;20044;-89
2022/07/21 11:24:20;;;;;;;4.05;1.67;;;;;;;37.52;24.73;99431.63;5068465;28;20047;-88
2022/07/21 11:26:56;;;;;;;1.42;1.20;;;;;;;37.20;21.16;99428.50;5068623;28;20111;-88
2022/07/21 11:29:23;;;;;;;2.25;1.40;;;;;;;37.88;21.83;99430.53;5067306;28;20036;-89
2022/07/21 11:31:49;;;;;;;2.28;1.30;;;;;;;37.62;20.80;99442.28;5067664;28;20070;-88
2022/07/21 11:34:15;;;;;;;1.75;1.17;;;;;;;38.12;18.88;99414.50;5068043;28;20035;-86
2022/07/21 11:36:41;;;;;;;3.13;1.42;;;;;;;38.51;19.59;99412.84;5067963;28;20030;-87
2022/07/21 11:39:09;;;;;;;1.50;1.08;;;;;;;38.69;20.97;99409.47;5068095;28;20414;-86